Time;durP1;ratioP1;P1;durP2;ratioP2;P2;SDS_P1;SDS_P2;PMS_P1;PMS_P2;Temp;Humidity;BMP_temperature;BMP_pressure;BME280_temperature;BME280_humidity;BME280_pressure;Samples;Min_cycle;Max_cycle;Signal;HPM_P1;HPM_P2
2022/01/01 00:02:26;;;;;;;56.85;38.88;;;13.20;93.90;;;;;;5087099;28;20036;-77
2022/01/01 00:05:05;;;;;;;49.58;33.95;;;13.20;93.90;;;;;;5071040;28;20040;-77
2022/01/01 00:07:34;;;;;;;44.10;29.48;;;13.20;93.90;;;;;;5070654;28;20063;-77
2022/01/01 00:10:02;;;;;;;39.45;26.58;;;13.20;93.90;;;;;;5069765;28;20079;-77
2022/01/01 00:12:29;;;;;;;53.30;36.53;;;13.20;93.90;;;;;;5070537;28;20044;-77
2022/01/01 00:14:56;;;;;;;88.85;59.17;;;13.20;93.90;;;;;;5086525;28;20484;-77
2022/01/01 00:17:23;;;;;;;94.00;61.83;;;13.20;93.80;;;;;;5037744;28;20056;-77
2022/01/01 00:19:50;;;;;;;78.60;55.55;;;13.20;93.80;;;;;;5070076;28;20753;-77
2022/01/01 00:22:17;;;;;;;75.20;52.95;;;13.20;93.80;;;;;;5088253;28;20040;-77
2022/01/01 00:24:44;;;;;;;78.35;55.58;;;13.30;93.80;;;;;;5053662;28;20060;-77
2022/01/01 00:27:11;;;;;;;66.47;47.20;;;13.30;93.80;;;;;;5069897;28;20781;-77
2022/01/01 00:29:38;;;;;;;62.35;40.47;;;13.20;93.80;;;;;;5070534;28;20449;-77
2022/01/01 00:32:05;;;;;;;54.53;35.88;;;13.20;93.80;;;;;;5070244;28;20040;-77
2022/01/01 00:34:34;;;;;;;42.35;30.45;;;13.20;93.80;;;;;;5069141;28;20143;-77
2022/01/01 00:37:02;;;;;;;45.13;29.92;;;13.30;93.80;;;;;;5085784;28;20052;-77
2022/01/01 00:39:29;;;;;;;42.20;27.38;;;13.20;93.80;;;;;;5088054;28;20448;-77
2022/01/01 00:41:56;;;;;;;45.40;28.90;;;13.20;93.80;;;;;;5086987;28;20036;-77
2022/01/01 00:44:24;;;;;;;44.65;27.55;;;13.30;93.80;;;;;;5086996;28;20048;-77
2022/01/01 00:46:51;;;;;;;42.72;27.23;;;13.20;93.80;;;;;;5069815;28;20961;-77
2022/01/01 00:49:20;;;;;;;49.65;26.50;;;13.20;93.80;;;;;;5086263;28;20048;-77
2022/01/01 00:51:47;;;;;;;41.10;25.95;;;13.20;93.80;;;;;;5070359;28;20040;-77
2022/01/01 00:54:15;;;;;;;48.08;27.23;;;13.20;93.80;;;;;;5036346;28;20121;-77
2022/01/01 00:56:42;;;;;;;36.63;24.42;;;13.20;93.80;;;;;;5085651;28;20113;-77
2022/01/01 00:59:09;;;;;;;36.13;22.95;;;13.20;93.80;;;;;;5086515;28;20131;-77
2022/01/01 01:01:37;;;;;;;43.42;27.27;;;13.20;93.80;;;;;;5086458;28;20860;-77
2022/01/01 01:04:05;;;;;;;40.95;26.13;;;13.20;93.80;;;;;;5069663;28;20040;-77
2022/01/01 01:06:32;;;;;;;42.08;25.67;;;13.20;93.80;;;;;;5069949;28;20123;-77
2022/01/01 01:09:00;;;;;;;44.95;27.60;;;13.20;93.80;;;;;;5068809;28;20075;-77
2022/01/01 01:11:28;;;;;;;48.58;28.92;;;13.20;93.80;;;;;;5085063;28;20047;-77
2022/01/01 01:14:00;;;;;;;46.92;27.17;;;13.20;93.80;;;;;;5086873;28;20054;-77
2022/01/01 01:16:28;;;;;;;39.53;24.48;;;13.20;93.80;;;;;;5086870;28;20105;-77
2022/01/01 01:18:57;;;;;;;34.80;22.13;;;13.20;93.80;;;;;;5086385;28;20048;-77
2022/01/01 01:21:25;;;;;;;33.95;22.10;;;13.10;93.80;;;;;;5086516;28;20055;-77
2022/01/01 01:23:54;;;;;;;41.10;23.90;;;13.10;93.90;;;;;;5037580;28;20056;-77
2022/01/01 01:26:23;;;;;;;36.47;24.05;;;13.20;93.90;;;;;;5085236;28;20500;-77
2022/01/01 01:28:51;;;;;;;39.45;24.85;;;13.20;93.90;;;;;;5087529;28;20074;-77
2022/01/01 01:31:19;;;;;;;43.33;27.25;;;13.20;93.90;;;;;;5086482;28;20145;-77
2022/01/01 01:33:50;;;;;;;50.80;32.95;;;13.20;93.90;;;;;;5069407;28;20071;-77
2022/01/01 01:36:17;;;;;;;58.28;35.30;;;13.10;93.80;;;;;;5085572;28;20067;-77
2022/01/01 01:38:44;;;;;;;52.28;34.53;;;13.10;93.80;;;;;;5052616;28;20055;-77
2022/01/01 01:41:11;;;;;;;43.22;28.58;;;13.10;93.80;;;;;;5085756;28;20043;-77
2022/01/01 01:43:38;;;;;;;44.70;30.02;;;13.10;93.80;;;;;;5068223;28;20039;-77
2022/01/01 01:46:06;;;;;;;49.50;29.73;;;13.10;93.80;;;;;;5084282;28;20129;-77
2022/01/01 01:48:37;;;;;;;43.13;27.13;;;13.10;93.80;;;;;;5084762;28;20044;-77
2022/01/01 01:51:04;;;;;;;45.55;29.38;;;13.10;93.80;;;;;;5084397;28;20077;-77
2022/01/01 01:53:33;;;;;;;46.55;29.38;;;13.10;93.80;;;;;;5086132;28;20135;-77
2022/01/01 01:56:00;;;;;;;43.13;27.90;;;13.10;93.80;;;;;;5084559;28;20048;-77
2022/01/01 01:58:30;;;;;;;38.42;25.95;;;13.10;93.90;;;;;;5085862;28;20040;-77
2022/01/01 02:03:25;;;;;;;50.33;29.38;;;13.10;93.90;;;;;;5086561;28;20784;-77
2022/01/01 02:05:53;;;;;;;49.50;32.85;;;13.00;93.80;;;;;;5068349;28;20910;-77
2022/01/01 02:08:21;;;;;;;54.05;28.83;;;13.00;93.70;;;;;;5085931;28;20177;-77
2022/01/01 02:10:52;;;;;;;41.72;25.88;;;13.00;93.80;;;;;;5069131;28;20141;-77
2022/01/01 02:14:33;;;;;;;39.72;27.95;;;13.10;93.80;;;;;;5076796;28;20056;-77
2022/01/01 02:18:55;;;;;;;40.28;22.70;;;13.00;93.70;;;;;;5083491;28;20043;-77
2022/01/01 02:21:23;;;;;;;36.05;24.05;;;13.00;93.70;;;;;;5084085;28;20095;-77
2022/01/01 02:23:57;;;;;;;36.13;21.55;;;13.00;93.70;;;;;;5084633;28;20114;-77
2022/01/01 02:26:33;;;;;;;37.65;20.38;;;13.00;93.70;;;;;;5058055;28;20048;-77
2022/01/01 02:29:03;;;;;;;34.72;20.50;;;13.00;93.70;;;;;;5084829;28;20044;-77
2022/01/01 02:31:33;;;;;;;31.70;19.40;;;13.00;93.80;;;;;;5066318;28;20056;-77
2022/01/01 02:34:08;;;;;;;30.65;17.58;;;13.00;93.80;;;;;;5065699;28;20048;-77
2022/01/01 02:36:41;;;;;;;29.80;16.50;;;13.00;93.80;;;;;;5082988;28;20044;-77
2022/01/01 02:39:15;;;;;;;;;;;13.00;93.80;;;;;;5082920;28;20774;-77
2022/01/01 02:41:43;;;;;;;26.15;16.67;;;13.00;93.80;;;;;;5067922;28;20446;-77
2022/01/01 02:44:10;;;;;;;26.63;17.70;;;13.00;93.90;;;;;;5084444;28;20052;-77
2022/01/01 02:46:37;;;;;;;28.25;16.60;;;13.00;93.90;;;;;;5085198;28;20067;-77
2022/01/01 02:49:04;;;;;;;28.15;16.25;;;13.00;93.90;;;;;;5059677;28;20051;-77
2022/01/01 02:51:32;;;;;;;34.20;19.50;;;13.00;93.90;;;;;;5068188;28;20067;-77
2022/01/01 02:54:00;;;;;;;41.35;21.23;;;13.00;93.90;;;;;;5083553;28;20040;-77
2022/01/01 02:56:27;;;;;;;28.77;17.58;;;13.00;93.90;;;;;;5085782;28;20116;-77
2022/01/01 02:58:54;;;;;;;29.05;17.92;;;13.00;93.90;;;;;;5068500;28;20153;-76
2022/01/01 03:01:21;;;;;;;30.45;18.95;;;13.00;93.90;;;;;;5084435;28;20060;-77
2022/01/01 03:03:48;;;;;;;28.63;18.85;;;13.00;93.90;;;;;;5084564;28;21183;-77
2022/01/01 03:06:19;;;;;;;32.67;16.88;;;13.00;93.90;;;;;;5086208;28;20047;-77
2022/01/01 03:08:55;;;;;;;28.17;16.23;;;13.00;93.90;;;;;;5085052;28;20048;-77
2022/01/01 03:11:23;;;;;;;33.95;19.60;;;13.00;93.90;;;;;;5086464;28;20063;-77
2022/01/01 03:13:50;;;;;;;29.02;15.55;;;13.00;93.90;;;;;;5084842;28;21488;-77
2022/01/01 03:16:17;;;;;;;27.33;16.38;;;13.00;93.90;;;;;;5085631;28;20123;-77
2022/01/01 03:18:44;;;;;;;26.45;14.95;;;13.00;94.00;;;;;;5085910;28;20051;-77
2022/01/01 03:21:11;;;;;;;26.35;14.55;;;13.00;94.00;;;;;;5084206;28;20044;-77
2022/01/01 03:23:38;;;;;;;20.10;12.07;;;13.00;94.00;;;;;;5086344;28;20050;-77
2022/01/01 03:26:06;;;;;;;19.48;11.43;;;13.00;94.00;;;;;;5085872;28;20066;-77
2022/01/01 03:28:33;;;;;;;17.50;10.18;;;13.00;94.00;;;;;;5085348;28;20048;-77
2022/01/01 03:31:00;;;;;;;17.05;10.30;;;13.00;94.00;;;;;;5086317;28;20067;-77
2022/01/01 03:33:27;;;;;;;18.83;10.60;;;13.00;94.00;;;;;;5067957;28;20079;-77
2022/01/01 03:35:54;;;;;;;15.10;9.90;;;13.00;94.00;;;;;;5084287;28;20105;-77
2022/01/01 03:38:21;;;;;;;20.13;11.27;;;13.00;94.00;;;;;;5068466;28;20060;-77
2022/01/01 03:40:48;;;;;;;21.55;11.32;;;13.10;94.00;;;;;;5084359;28;20109;-77
2022/01/01 03:43:15;;;;;;;17.17;9.43;;;13.10;94.00;;;;;;5070376;28;20148;-77
2022/01/01 03:45:42;;;;;;;17.00;10.77;;;13.10;94.00;;;;;;5089717;28;20036;-77
2022/01/01 03:48:09;;;;;;;20.45;11.73;;;13.10;94.00;;;;;;5087108;28;20044;-77
2022/01/01 03:50:36;;;;;;;21.13;11.70;;;13.10;94.00;;;;;;5071341;28;20036;-77
2022/01/01 03:53:03;;;;;;;19.88;11.48;;;13.10;94.00;;;;;;5089160;28;20032;-77
2022/01/01 03:55:31;;;;;;;18.02;10.20;;;13.10;94.00;;;;;;5088434;28;20036;-77
2022/01/01 03:57:58;;;;;;;12.73;8.23;;;13.10;94.10;;;;;;5072335;28;20093;-77
2022/01/01 04:00:24;;;;;;;17.25;8.98;;;13.10;94.10;;;;;;5071999;28;20368;-77
2022/01/01 04:02:51;;;;;;;15.23;9.45;;;13.10;94.10;;;;;;5071745;28;20054;-77
2022/01/01 04:05:18;;;;;;;14.93;9.77;;;13.10;94.10;;;;;;5071162;28;20040;-77
2022/01/01 04:07:46;;;;;;;16.50;8.82;;;13.10;94.10;;;;;;5071146;28;20076;-76
2022/01/01 04:10:13;;;;;;;13.90;7.82;;;13.10;94.30;;;;;;5086916;28;20416;-77
2022/01/01 04:12:40;;;;;;;15.13;8.38;;;13.10;94.10;;;;;;5054887;28;20453;-77
2022/01/01 04:15:07;;;;;;;11.60;6.40;;;13.10;94.10;;;;;;5070366;28;20090;-77
2022/01/01 04:17:37;;;;;;;15.35;7.57;;;13.10;94.10;;;;;;5087238;28;20113;-77
2022/01/01 04:20:05;;;;;;;10.88;6.97;;;13.10;94.10;;;;;;5066333;28;20121;-77
2022/01/01 04:22:33;;;;;;;13.63;7.07;;;13.10;94.10;;;;;;5070147;28;20078;-77
2022/01/01 04:25:00;;;;;;;12.05;6.88;;;13.20;94.10;;;;;;5086915;28;20040;-77
2022/01/01 04:27:27;;;;;;;14.48;9.32;;;13.10;94.10;;;;;;5087494;28;20644;-77
2022/01/01 04:29:54;;;;;;;13.85;7.88;;;13.20;94.10;;;;;;5069976;28;20063;-77
2022/01/01 04:32:21;;;;;;;15.73;7.63;;;13.20;94.10;;;;;;5070154;28;20056;-77
2022/01/01 04:34:48;;;;;;;17.17;8.32;;;13.10;94.10;;;;;;5069440;28;20125;-77
2022/01/01 04:37:18;;;;;;;13.52;7.15;;;13.20;94.10;;;;;;5085574;28;20044;-77
2022/01/01 04:39:50;;;;;;;13.02;6.28;;;13.10;94.10;;;;;;5069159;28;20079;-77
2022/01/01 04:42:17;;;;;;;10.93;5.90;;;13.20;94.10;;;;;;5085859;28;20068;-77
2022/01/01 04:44:45;;;;;;;13.52;6.75;;;13.20;94.10;;;;;;5087117;28;20109;-77
2022/01/01 04:47:12;;;;;;;14.30;6.70;;;13.20;94.10;;;;;;5088103;28;20028;-77
2022/01/01 04:49:39;;;;;;;9.68;5.65;;;13.20;94.10;;;;;;5052987;28;20125;-76
2022/01/01 04:52:06;;;;;;;15.30;6.80;;;13.20;94.10;;;;;;5053911;28;20086;-77
2022/01/01 04:54:37;;;;;;;11.15;5.53;;;13.20;94.20;;;;;;5068555;28;20048;-77
2022/01/01 04:57:04;;;;;;;11.20;5.68;;;13.20;94.10;;;;;;5085916;28;20492;-77
2022/01/01 04:59:32;;;;;;;8.35;4.55;;;13.20;94.10;;;;;;5086781;28;20648;-77
2022/01/01 05:01:59;;;;;;;8.13;4.47;;;13.20;94.20;;;;;;5070312;28;20057;-77
2022/01/01 05:04:27;;;;;;;6.97;3.75;;;13.20;94.20;;;;;;5086477;28;20044;-77
2022/01/01 05:06:56;;;;;;;9.35;4.70;;;13.20;94.20;;;;;;5086633;28;20072;-77
2022/01/01 05:09:23;;;;;;;9.55;3.75;;;13.20;94.20;;;;;;5090170;28;20059;-78
2022/01/01 05:11:50;;;;;;;9.77;4.75;;;13.20;94.20;;;;;;5070968;28;20063;-78
2022/01/01 05:14:17;;;;;;;11.18;5.68;;;13.20;94.20;;;;;;5086610;28;20627;-78
2022/01/01 05:16:45;;;;;;;8.80;4.43;;;13.20;94.20;;;;;;5087357;28;20040;-78
2022/01/01 05:19:13;;;;;;;9.60;5.13;;;13.20;94.20;;;;;;5069497;28;20051;-78
2022/01/01 05:21:40;;;;;;;7.65;4.45;;;13.20;94.10;;;;;;5069407;28;20281;-78
2022/01/01 05:24:08;;;;;;;8.38;4.63;;;13.20;94.20;;;;;;5067324;28;20044;-78
2022/01/01 05:26:35;;;;;;;7.03;3.40;;;13.20;94.20;;;;;;5067988;28;20044;-79
2022/01/01 05:29:02;;;;;;;9.13;3.83;;;13.20;94.20;;;;;;5085411;28;20048;-78
2022/01/01 05:31:33;;;;;;;7.35;4.20;;;13.20;94.40;;;;;;5085925;28;20056;-78
2022/01/01 05:34:00;;;;;;;8.32;4.00;;;13.20;94.20;;;;;;5060190;28;20051;-78
2022/01/01 05:36:27;;;;;;;9.55;5.22;;;13.20;94.20;;;;;;5069285;28;20131;-78
2022/01/01 05:38:55;;;;;;;9.30;4.38;;;13.30;94.20;;;;;;5052751;28;20051;-78
2022/01/01 05:41:25;;;;;;;10.00;4.50;;;13.20;94.10;;;;;;5069348;28;20055;-77
2022/01/01 05:43:52;;;;;;;7.82;3.00;;;13.20;94.10;;;;;;5069692;28;20048;-77
2022/01/01 05:46:19;;;;;;;6.38;2.75;;;13.20;94.20;;;;;;5069116;28;20036;-77
2022/01/01 05:48:46;;;;;;;5.70;2.88;;;13.20;94.20;;;;;;5069923;28;20297;-77
2022/01/01 05:51:13;;;;;;;5.70;2.28;;;13.20;94.20;;;;;;5087037;28;20051;-77
2022/01/01 05:53:40;;;;;;;5.18;2.28;;;13.20;94.20;;;;;;5069263;28;20059;-77
2022/01/01 05:56:07;;;;;;;5.50;2.47;;;13.20;94.20;;;;;;5066809;28;20037;-77
2022/01/01 05:58:34;;;;;;;7.93;3.20;;;13.20;94.20;;;;;;5085950;28;20163;-77
2022/01/01 06:01:03;;;;;;;6.72;2.40;;;13.20;94.20;;;;;;5067303;28;20068;-77
2022/01/01 06:03:31;;;;;;;5.85;2.80;;;13.30;94.50;;;;;;5069092;28;20131;-77
2022/01/01 06:05:58;;;;;;;6.18;2.13;;;13.20;94.20;;;;;;5086159;28;20094;-77
2022/01/01 06:08:38;;;;;;;4.50;1.73;;;13.30;94.20;;;;;;5070583;28;20044;-77
2022/01/01 06:11:06;;;;;;;5.68;2.38;;;13.20;94.20;;;;;;5069087;28;20143;-77
2022/01/01 06:13:33;;;;;;;3.97;1.85;;;13.20;94.20;;;;;;5052719;28;20373;-78
2022/01/01 06:16:03;;;;;;;5.90;1.77;;;13.30;94.20;;;;;;5068299;28;20068;-78
2022/01/01 06:18:30;;;;;;;4.68;2.20;;;13.30;94.30;;;;;;5087281;28;20074;-79
2022/01/01 06:20:57;;;;;;;4.95;2.28;;;13.30;94.30;;;;;;5068449;28;20055;-78
2022/01/01 06:23:24;;;;;;;5.70;1.92;;;13.20;94.20;;;;;;5069776;28;20032;-78
2022/01/01 06:25:51;;;;;;;4.38;2.00;;;13.30;94.20;;;;;;5067941;28;20076;-78
2022/01/01 06:28:20;;;;;;;5.97;2.08;;;13.20;94.20;;;;;;5059530;28;20356;-78
2022/01/01 06:30:47;;;;;;;6.30;2.33;;;13.30;94.30;;;;;;5084588;28;20492;-78
2022/01/01 06:33:16;;;;;;;4.80;2.00;;;13.20;94.50;;;;;;5052603;28;20044;-78
2022/01/01 06:35:45;;;;;;;6.38;2.25;;;13.20;94.20;;;;;;5084351;28;21274;-78
2022/01/01 06:38:13;;;;;;;9.00;3.08;;;13.20;94.20;;;;;;5085790;28;20085;-78
2022/01/01 06:40:42;;;;;;;4.80;2.13;;;13.20;94.20;;;;;;5068206;28;20728;-78
2022/01/01 06:43:13;;;;;;;5.93;2.42;;;13.20;94.20;;;;;;5086512;28;20040;-79
2022/01/01 06:45:41;;;;;;;5.90;2.03;;;13.20;94.20;;;;;;5084562;28;20040;-78
2022/01/01 06:48:08;;;;;;;4.45;2.30;;;13.20;94.20;;;;;;5085347;28;20070;-78
2022/01/01 06:50:37;;;;;;;4.47;2.33;;;13.20;94.20;;;;;;5068129;28;20067;-77
2022/01/01 06:53:11;;;;;;;4.65;1.92;;;13.10;94.20;;;;;;5084281;28;20036;-76
2022/01/01 06:55:39;;;;;;;3.53;1.60;;;13.00;94.20;;;;;;5084309;28;20048;-77
2022/01/01 06:58:06;;;;;;;2.97;1.55;;;13.00;94.30;;;;;;5068977;28;20497;-77
2022/01/01 07:00:33;;;;;;;2.85;1.30;;;12.90;94.40;;;;;;5084942;28;20123;-82
2022/01/01 07:03:01;;;;;;;3.30;1.65;;;12.80;94.50;;;;;;5035794;28;20081;-79
2022/01/01 07:05:28;;;;;;;4.28;1.80;;;12.70;94.50;;;;;;5043643;28;20078;-76
2022/01/01 07:07:55;;;;;;;6.13;1.23;;;12.60;94.50;;;;;;5084753;28;20048;-81
2022/01/01 07:10:22;;;;;;;2.58;1.10;;;12.60;94.60;;;;;;5085477;28;20059;-79
2022/01/01 07:12:49;;;;;;;2.22;1.13;;;12.50;94.60;;;;;;5068532;28;20052;-80
2022/01/01 07:15:17;;;;;;;4.40;1.45;;;12.50;94.70;;;;;;5083828;28;20048;-81
2022/01/01 07:17:44;;;;;;;2.90;0.98;;;12.40;94.70;;;;;;5088469;28;20050;-80
2022/01/01 07:20:14;;;;;;;3.78;1.23;;;12.40;94.80;;;;;;5089009;28;20044;-80
2022/01/01 07:22:43;;;;;;;3.97;1.10;;;12.30;94.80;;;;;;5072033;28;20048;-82
2022/01/01 07:25:12;;;;;;;2.42;0.88;;;12.30;94.80;;;;;;5089760;28;20044;-79
2022/01/01 07:27:42;;;;;;;2.67;0.93;;;12.30;94.90;;;;;;5078653;28;20455;-80
2022/01/01 07:30:10;;;;;;;1.70;0.90;;;12.30;94.90;;;;;;5072004;28;20055;-80
2022/01/01 07:32:45;;;;;;;2.60;1.38;;;12.30;94.90;;;;;;5088630;28;20048;-79
2022/01/01 07:35:15;;;;;;;3.63;1.00;;;12.40;94.80;;;;;;5088195;28;20051;-77
2022/01/01 07:37:42;;;;;;;2.85;0.82;;;12.40;94.80;;;;;;5089231;28;20040;-77
2022/01/01 07:40:12;;;;;;;2.22;0.80;;;12.50;94.70;;;;;;5088313;28;20500;-77
2022/01/01 07:42:40;;;;;;;3.00;0.70;;;12.50;94.70;;;;;;5086153;28;20041;-77
2022/01/01 07:45:07;;;;;;;1.85;0.88;;;12.50;94.60;;;;;;5055063;28;20559;-77
2022/01/01 07:47:35;;;;;;;2.83;0.98;;;12.50;94.60;;;;;;5071091;28;20051;-77
2022/01/01 07:50:03;;;;;;;4.55;1.25;;;12.50;94.60;;;;;;5088569;28;20163;-77
2022/01/01 07:52:30;;;;;;;3.33;1.02;;;12.50;94.60;;;;;;5088512;28;20121;-77
2022/01/01 07:54:57;;;;;;;3.33;1.63;;;12.40;94.60;;;;;;5054277;28;20048;-77
2022/01/01 07:57:27;;;;;;;2.88;1.27;;;12.40;94.60;;;;;;5072403;28;20135;-77
2022/01/01 07:59:55;;;;;;;2.60;1.10;;;12.40;94.60;;;;;;5087545;28;20048;-77
2022/01/01 08:02:22;;;;;;;2.60;0.90;;;12.40;94.60;;;;;;5071360;28;20072;-77
2022/01/01 08:04:49;;;;;;;2.45;0.90;;;12.40;94.70;;;;;;5070088;28;20101;-77
2022/01/01 08:07:16;;;;;;;3.60;0.80;;;12.40;94.70;;;;;;5071492;28;20665;-77
2022/01/01 08:10:04;;;;;;;3.20;1.17;;;12.40;94.70;;;;;;5087070;28;20491;-77
2022/01/01 08:12:32;;;;;;;2.63;1.15;;;12.40;94.70;;;;;;5070562;28;20044;-78
2022/01/01 08:14:59;;;;;;;3.55;0.80;;;12.40;94.60;;;;;;5069731;28;20453;-78
2022/01/01 08:17:26;;;;;;;2.70;1.00;;;12.40;94.60;;;;;;5069905;28;20452;-77
2022/01/01 08:19:53;;;;;;;3.75;1.27;;;12.40;94.60;;;;;;5053916;28;20052;-77
2022/01/01 08:22:22;;;;;;;5.55;1.20;;;12.40;94.60;;;;;;5069381;28;21255;-77
2022/01/01 08:24:50;;;;;;;3.78;0.93;;;12.50;94.50;;;;;;5085295;28;20526;-77
2022/01/01 08:27:17;;;;;;;5.10;1.30;;;12.40;94.50;;;;;;5068456;28;20097;-78
2022/01/01 08:29:44;;;;;;;4.70;1.10;;;12.40;94.50;;;;;;5069585;28;20119;-77
2022/01/01 08:32:11;;;;;;;3.78;1.02;;;12.50;94.50;;;;;;5087495;28;20459;-76
2022/01/01 08:34:38;;;;;;;3.88;1.20;;;12.50;94.50;;;;;;5086398;28;20048;-77
2022/01/01 08:37:05;;;;;;;2.17;1.02;;;12.50;94.50;;;;;;5069788;28;20139;-77
2022/01/01 08:39:32;;;;;;;3.22;1.20;;;12.50;94.40;;;;;;5086366;28;20119;-77
2022/01/01 08:41:59;;;;;;;2.13;0.90;;;12.60;94.40;;;;;;5086423;28;20048;-77
2022/01/01 08:44:29;;;;;;;2.72;0.80;;;12.70;94.40;;;;;;5052382;28;20131;-77
2022/01/01 08:46:57;;;;;;;2.22;0.70;;;12.70;94.40;;;;;;5086272;28;20044;-77
2022/01/01 08:49:24;;;;;;;2.97;0.77;;;12.80;94.30;;;;;;5052760;28;20036;-77
2022/01/01 08:51:55;;;;;;;3.03;0.88;;;12.80;94.20;;;;;;5052644;28;20071;-77
2022/01/01 08:54:22;;;;;;;5.05;1.23;;;12.90;94.20;;;;;;5085300;28;20056;-78
2022/01/01 08:56:50;;;;;;;3.15;0.60;;;13.00;94.20;;;;;;5069483;28;20421;-77
2022/01/01 08:59:17;;;;;;;2.17;0.98;;;13.00;94.10;;;;;;5052621;28;20048;-77
2022/01/01 09:01:44;;;;;;;2.75;0.63;;;13.00;94.10;;;;;;5084384;28;20446;-77
2022/01/01 09:04:12;;;;;;;6.78;1.05;;;13.10;94.10;;;;;;5083181;28;20050;-77
2022/01/01 09:06:39;;;;;;;3.30;0.73;;;13.10;94.00;;;;;;5084462;28;20128;-78
2022/01/01 09:09:06;;;;;;;3.55;1.17;;;13.10;94.00;;;;;;5049901;28;20079;-77
2022/01/01 09:11:33;;;;;;;4.95;1.45;;;13.10;94.30;;;;;;5046215;28;1121427;-80
2022/01/01 09:14:00;;;;;;;2.75;1.10;;;13.10;93.90;;;;;;5067865;28;20443;-78
2022/01/01 09:16:29;;;;;;;4.60;1.00;;;13.10;93.90;;;;;;5052722;28;20044;-77
2022/01/01 09:18:57;;;;;;;2.20;1.00;;;13.10;93.90;;;;;;5087335;28;20056;-78
2022/01/01 09:21:27;;;;;;;2.33;1.13;;;13.20;93.90;;;;;;5068859;28;20044;-78
2022/01/01 09:23:55;;;;;;;2.95;0.77;;;13.20;93.90;;;;;;5085993;28;20101;-78
2022/01/01 09:26:22;;;;;;;1.65;0.77;;;13.20;93.90;;;;;;5087532;28;20778;-78
2022/01/01 09:28:49;;;;;;;1.55;0.55;;;13.30;93.90;;;;;;5086383;28;20139;-77
2022/01/01 09:31:16;;;;;;;5.32;1.10;;;13.30;93.80;;;;;;5069419;28;20089;-77
2022/01/01 09:33:44;;;;;;;3.65;1.10;;;13.40;93.80;;;;;;5088103;28;20094;-77
2022/01/01 09:36:14;;;;;;;3.22;1.00;;;13.40;93.70;;;;;;5087388;28;20046;-78
2022/01/01 09:38:42;;;;;;;1.83;0.70;;;13.50;93.70;;;;;;5071280;28;20048;-78
2022/01/01 09:41:09;;;;;;;2.00;0.60;;;13.50;93.70;;;;;;5069608;28;20105;-77
2022/01/01 09:43:37;;;;;;;5.00;1.10;;;13.50;93.70;;;;;;5086507;28;20130;-78
2022/01/01 09:46:04;;;;;;;3.95;2.00;;;13.50;93.60;;;;;;5085910;28;20397;-78
2022/01/01 09:48:32;;;;;;;6.25;1.70;;;13.50;93.50;;;;;;5086853;28;20048;-77
2022/01/01 09:51:02;;;;;;;4.85;1.23;;;13.50;93.40;;;;;;5087245;28;20059;-78
2022/01/01 09:53:31;;;;;;;2.97;1.30;;;13.50;93.40;;;;;;5085788;28;20477;-77
2022/01/01 09:56:00;;;;;;;3.50;1.10;;;13.50;93.40;;;;;;5069135;28;20068;-77
2022/01/01 09:58:29;;;;;;;3.47;1.33;;;13.50;93.50;;;;;;5044065;28;20113;-77
2022/01/01 10:00:57;;;;;;;4.82;1.20;;;13.50;93.40;;;;;;5086797;28;20955;-77
2022/01/01 10:03:37;;;;;;;4.45;1.00;;;13.50;93.40;;;;;;5085578;28;20056;-77
2022/01/01 10:06:13;;;;;;;6.15;1.80;;;13.50;93.30;;;;;;5086588;28;20040;-78
2022/01/01 10:08:45;;;;;;;3.70;1.10;;;13.50;93.30;;;;;;5085029;28;20070;-78
2022/01/01 10:11:17;;;;;;;3.53;1.20;;;13.50;93.30;;;;;;5083558;28;20048;-77
2022/01/01 10:13:46;;;;;;;4.47;1.67;;;13.50;93.30;;;;;;5084259;28;20933;-78
2022/01/01 10:16:16;;;;;;;5.95;1.42;;;13.50;93.20;;;;;;5068789;28;20048;-77
2022/01/01 10:18:46;;;;;;;7.28;1.90;;;13.50;93.20;;;;;;5085215;28;20123;-77
2022/01/01 10:21:19;;;;;;;4.30;1.35;;;13.60;93.20;;;;;;5085508;28;20040;-77
2022/01/01 10:23:51;;;;;;;4.03;1.40;;;13.60;93.20;;;;;;5086091;28;20044;-77
2022/01/01 10:29:08;;;;;;;3.47;1.40;;;13.60;93.10;;;;;;5085580;28;20051;-77
2022/01/01 10:31:38;;;;;;;3.00;1.38;;;13.60;93.40;;;;;;5086829;28;20044;-77
2022/01/01 10:34:14;;;;;;;5.03;1.40;;;13.60;93.10;;;;;;5085215;28;20097;-78
2022/01/01 10:36:47;;;;;;;3.78;1.35;;;13.70;93.10;;;;;;5085445;28;20040;-78
2022/01/01 10:39:18;;;;;;;4.70;2.03;;;13.70;93.10;;;;;;5083705;28;20078;-77
2022/01/01 10:41:50;;;;;;;4.57;2.33;;;13.70;93.00;;;;;;5085683;28;20036;-77
2022/01/01 10:44:23;;;;;;;3.20;1.40;;;13.70;93.00;;;;;;5086439;28;20044;-77
2022/01/01 10:46:51;;;;;;;6.75;2.83;;;13.70;93.00;;;;;;5084149;28;20048;-77
2022/01/01 10:52:24;;;;;;;4.38;2.08;;;13.70;92.80;;;;;;5088136;28;20440;-77
2022/01/01 10:54:55;;;;;;;4.40;1.50;;;13.70;92.90;;;;;;5071996;28;20488;-76
2022/01/01 10:57:24;;;;;;;4.00;1.40;;;13.80;92.90;;;;;;5071935;28;20171;-77
2022/01/01 11:00:02;;;;;;;3.35;1.30;;;13.80;92.90;;;;;;5089707;28;20044;-77
2022/01/01 11:02:33;;;;;;;4.03;1.50;;;13.80;92.90;;;;;;5090174;28;20496;-77
2022/01/01 11:05:00;;;;;;;6.82;2.53;;;13.90;92.90;;;;;;5072404;28;20055;-77
2022/01/01 11:07:27;;;;;;;6.50;2.00;;;13.90;92.80;;;;;;5089090;28;20043;-77
2022/01/01 11:09:56;;;;;;;3.47;1.30;;;13.90;92.80;;;;;;5088375;28;20113;-78
2022/01/01 11:12:24;;;;;;;5.35;2.00;;;14.00;92.80;;;;;;5089140;28;20113;-77
2022/01/01 11:14:56;;;;;;;2.60;1.20;;;14.00;92.70;;;;;;5088404;28;20116;-77
2022/01/01 11:17:24;;;;;;;3.28;1.50;;;14.00;92.70;;;;;;5071457;28;20114;-77
2022/01/01 11:19:54;;;;;;;4.15;1.52;;;14.00;92.70;;;;;;5087819;28;20075;-78
2022/01/01 11:22:22;;;;;;;4.85;1.83;;;14.00;92.70;;;;;;5088814;28;20048;-77
2022/01/01 11:24:51;;;;;;;4.40;1.33;;;14.00;92.70;;;;;;5087783;28;20080;-77
2022/01/01 11:27:27;;;;;;;2.90;1.10;;;14.00;92.70;;;;;;5086122;28;20032;-78
2022/01/01 11:29:56;;;;;;;5.25;1.50;;;14.00;92.70;;;;;;5088102;28;20044;-78
2022/01/01 11:32:38;;;;;;;5.10;1.90;;;14.00;92.90;;;;;;5072834;28;20048;-78
2022/01/01 11:35:16;;;;;;;3.28;1.60;;;14.00;92.60;;;;;;5089798;28;20085;-77
2022/01/01 11:38:01;;;;;;;3.38;1.33;;;14.10;92.60;;;;;;5087081;28;20068;-77
2022/01/01 11:40:42;;;;;;;3.47;1.33;;;14.10;92.60;;;;;;5088745;28;20059;-77
2022/01/01 11:43:46;;;;;;;2.30;1.00;;;14.10;92.70;;;;;;5087293;28;20051;-77
2022/01/01 11:46:27;;;;;;;3.15;1.27;;;14.20;92.70;;;;;;5086331;28;20044;-77
2022/01/01 11:48:56;;;;;;;3.33;1.23;;;14.10;92.60;;;;;;5088258;28;20147;-77
2022/01/01 11:51:54;;;;;;;2.72;0.93;;;14.20;92.60;;;;;;5089716;28;20093;-75
2022/01/01 11:54:27;;;;;;;3.40;1.55;;;14.20;92.60;;;;;;5088188;28;20056;-77
2022/01/01 11:56:59;;;;;;;4.55;1.90;;;14.10;92.60;;;;;;5071227;28;20044;-79
2022/01/01 11:59:36;;;;;;;3.70;1.83;;;14.20;92.50;;;;;;5087467;28;20143;-78
2022/01/01 12:02:20;;;;;;;2.83;1.43;;;14.10;92.50;;;;;;5087891;28;20427;-78
2022/01/01 12:04:55;;;;;;;3.00;1.25;;;14.10;92.50;;;;;;5085391;28;20105;-77
2022/01/01 12:07:24;;;;;;;4.35;1.50;;;14.10;92.60;;;;;;5070031;28;20140;-79
2022/01/01 12:10:07;;;;;;;3.10;1.50;;;14.10;92.60;;;;;;5088767;28;20045;-78
2022/01/01 12:12:54;;;;;;;2.72;1.17;;;14.20;92.60;;;;;;5088112;28;20105;-79
2022/01/01 12:15:24;;;;;;;4.47;1.48;;;14.20;92.50;;;;;;5086672;28;20040;-79
2022/01/01 12:17:56;;;;;;;4.68;1.67;;;14.20;92.50;;;;;;5088626;28;20133;-78
2022/01/01 12:20:31;;;;;;;2.35;0.70;;;14.20;92.50;;;;;;5084183;28;20050;-77
2022/01/01 12:23:02;;;;;;;2.88;1.25;;;14.20;92.50;;;;;;5070655;28;20048;-76
2022/01/01 12:25:31;;;;;;;2.33;0.95;;;14.30;92.80;;;;;;5069708;28;20050;-77
2022/01/01 12:28:08;;;;;;;2.72;0.90;;;14.30;92.50;;;;;;5070455;28;20040;-78
2022/01/01 12:30:54;;;;;;;2.13;0.95;;;14.30;92.50;;;;;;5076926;28;20043;-78
2022/01/01 12:33:46;;;;;;;3.20;0.95;;;14.40;92.50;;;;;;5087569;28;20043;-78
2022/01/01 12:36:14;;;;;;;;;;;14.40;92.50;;;;;;5070608;28;20040;-77
2022/01/01 12:38:49;;;;;;;2.58;0.90;;;14.40;92.40;;;;;;5069595;28;19977;-77
2022/01/01 12:41:21;;;;;;;5.97;1.60;;;14.40;92.40;;;;;;5102163;28;20734;-78
2022/01/01 12:43:53;;;;;;;4.88;1.42;;;14.40;92.30;;;;;;5086323;28;20032;-78
2022/01/01 12:46:23;;;;;;;2.85;1.45;;;14.50;92.20;;;;;;5085259;28;20146;-78
2022/01/01 12:48:51;;;;;;;2.92;1.55;;;14.50;92.20;;;;;;5068724;28;20044;-77
2022/01/01 12:51:22;;;;;;;3.92;1.20;;;14.60;92.20;;;;;;5052428;28;20625;-77
2022/01/01 12:54:03;;;;;;;3.05;1.17;;;14.60;92.20;;;;;;5088148;28;20141;-78
2022/01/01 12:56:34;;;;;;;4.68;1.42;;;14.60;92.20;;;;;;5086182;28;20063;-77
2022/01/01 12:59:08;;;;;;;3.15;1.73;;;14.60;92.10;;;;;;5069772;28;20653;-77
2022/01/01 13:01:37;;;;;;;2.78;1.20;;;14.60;92.10;;;;;;5086561;28;20051;-78
2022/01/01 13:04:17;;;;;;;2.35;0.98;;;14.60;92.10;;;;;;5087305;28;20048;-86